createdAt,value
2016-11-15T00:00:53.771Z,4.5
2016-11-15T00:02:04.075Z,4.57
2016-11-15T00:03:14.079Z,4.58
2016-11-15T00:04:24.130Z,4.53
2016-11-15T00:05:34.280Z,4.56
2016-11-15T00:06:44.419Z,4.57
2016-11-15T00:07:54.548Z,4.63
2016-11-15T00:09:04.583Z,4.68
2016-11-15T00:10:13.648Z,4.61
2016-11-15T00:11:22.750Z,4.6
2016-11-15T00:12:32.785Z,4.57
2016-11-15T00:13:42.486Z,4.63
2016-11-15T00:14:52.650Z,4.64
2016-11-15T00:16:03.002Z,4.66
2016-11-15T00:17:13.358Z,4.64
2016-11-15T00:18:23.670Z,4.63
2016-11-15T00:19:33.482Z,4.63
2016-11-15T00:20:43.495Z,4.64
2016-11-15T00:21:53.181Z,4.63
2016-11-15T00:23:02.883Z,4.6
2016-11-15T00:24:12.883Z,4.64
2016-11-15T00:25:22.931Z,4.61
2016-11-15T00:26:32.646Z,4.66
2016-11-15T00:27:42.650Z,4.63
2016-11-15T00:28:52.977Z,4.61
2016-11-15T00:30:02.976Z,4.64
2016-11-15T00:31:12.710Z,4.64
2016-11-15T00:32:23.027Z,4.67
2016-11-15T00:33:33.333Z,4.61
2016-11-15T00:34:43.102Z,4.68
2016-11-15T00:35:53.101Z,4.6
2016-11-15T00:37:02.786Z,4.68
2016-11-15T00:38:12.530Z,4.66
2016-11-15T00:39:22.548Z,4.67
2016-11-15T00:40:32.601Z,4.64
2016-11-15T00:41:41.975Z,4.6
2016-11-15T00:42:52.319Z,4.67
2016-11-15T00:44:01.992Z,4.6
2016-11-15T00:45:12.341Z,4.61
2016-11-15T00:46:22.361Z,4.61
2016-11-15T00:47:32.503Z,4.58
2016-11-15T00:48:42.921Z,4.58
2016-11-15T00:49:52.609Z,4.66
2016-11-15T00:51:03.080Z,4.58
2016-11-15T00:52:13.369Z,4.57
2016-11-15T00:53:23.390Z,4.58
2016-11-15T00:54:33.769Z,4.61
2016-11-15T00:55:43.838Z,4.61
2016-11-15T00:56:53.535Z,4.6
2016-11-15T00:58:03.542Z,4.61
2016-11-15T00:59:13.228Z,4.57
2016-11-15T01:00:23.220Z,4.63
2016-11-15T01:01:33.217Z,4.6
2016-11-15T01:02:42.627Z,4.56
2016-11-15T01:03:52.988Z,4.52
2016-11-15T01:05:02.379Z,4.5
2016-11-15T01:06:11.763Z,4.58
2016-11-15T01:07:20.974Z,4.53
2016-11-15T01:08:31.080Z,4.5
2016-11-15T01:09:40.851Z,4.53
2016-11-15T01:10:50.914Z,4.49
2016-11-15T01:12:00.631Z,4.52
2016-11-15T01:13:10.645Z,4.52
2016-11-15T01:14:20.016Z,4.49
2016-11-15T01:15:30.039Z,4.48
2016-11-15T01:16:39.811Z,4.46
2016-11-15T01:17:49.946Z,4.34
2016-11-15T01:18:59.962Z,4.36
2016-11-15T01:20:09.970Z,4.38
2016-11-15T01:21:19.701Z,4.36
2016-11-15T01:22:29.721Z,4.39
2016-11-15T01:23:40.026Z,4.46
2016-11-15T01:24:50.045Z,4.46
2016-11-15T01:26:00.099Z,4.56
2016-11-15T01:27:10.409Z,4.48
2016-11-15T01:28:20.407Z,4.43
2016-11-15T01:29:30.154Z,4.5
2016-11-15T01:30:40.472Z,4.43
2016-11-15T01:31:50.479Z,4.45
2016-11-15T01:33:00.181Z,4.34
2016-11-15T01:34:10.189Z,4.49
2016-11-15T01:35:19.591Z,4.45
2016-11-15T01:36:29.333Z,4.5
2016-11-15T01:37:39.639Z,4.43
2016-11-15T01:38:49.689Z,4.45
2016-11-15T01:39:59.382Z,4.46
2016-11-15T01:41:09.719Z,4.46
2016-11-15T01:42:19.175Z,4.52
2016-11-15T01:43:29.495Z,4.43
2016-11-15T01:44:38.721Z,4.38
2016-11-15T01:45:48.408Z,4.34
2016-11-15T01:46:58.097Z,4.45
2016-11-15T01:48:08.100Z,4.46
2016-11-15T01:49:18.157Z,4.45
2016-11-15T01:50:28.164Z,4.45
2016-11-15T01:51:38.173Z,4.43
2016-11-15T01:52:48.194Z,4.4
2016-11-15T01:53:57.568Z,4.45
2016-11-15T01:55:07.881Z,4.45
2016-11-15T01:56:17.629Z,4.38
2016-11-15T01:57:27.649Z,4.45
2016-11-15T01:58:37.359Z,4.43
2016-11-15T01:59:47.509Z,4.43
2016-11-15T02:00:57.839Z,4.43
2016-11-15T02:02:07.229Z,4.5
2016-11-15T02:03:17.236Z,4.45
2016-11-15T02:04:27.248Z,4.45
2016-11-15T02:05:37.001Z,4.48
2016-11-15T02:06:47.319Z,4.39
2016-11-15T02:07:57.628Z,4.36
2016-11-15T02:09:07.643Z,4.39
2016-11-15T02:10:18.039Z,4.48
2016-11-15T02:11:27.803Z,4.5
2016-11-15T02:12:37.190Z,4.43
2016-11-15T02:13:47.545Z,4.52
2016-11-15T02:14:56.959Z,4.48
2016-11-15T02:16:06.347Z,4.43
2016-11-15T02:17:16.651Z,4.48
2016-11-15T02:18:26.633Z,4.45
2016-11-15T02:19:35.818Z,4.58
2016-11-15T02:20:45.921Z,4.46
2016-11-15T02:21:55.710Z,4.49
2016-11-15T02:23:05.724Z,4.53
2016-11-15T02:24:15.722Z,4.49
2016-11-15T02:25:25.769Z,4.53
2016-11-15T02:26:35.872Z,4.6
2016-11-15T02:27:45.917Z,4.6
2016-11-15T02:28:55.918Z,4.64
2016-11-15T02:30:05.918Z,4.6
2016-11-15T02:31:15.974Z,4.58
2016-11-15T02:32:26.296Z,4.61
2016-11-15T02:33:36.091Z,4.63
2016-11-15T02:34:45.774Z,4.66
2016-11-15T02:35:55.461Z,4.67
2016-11-15T02:37:05.236Z,4.63
2016-11-15T02:38:15.606Z,4.63
2016-11-15T02:39:25.286Z,4.61
2016-11-15T02:40:35.001Z,4.63
2016-11-15T02:41:45.371Z,4.63
2016-11-15T02:42:55.160Z,4.66
2016-11-15T02:44:04.849Z,4.67
2016-11-15T02:45:14.547Z,4.61
2016-11-15T02:46:24.570Z,4.66
2016-11-15T02:47:34.632Z,4.71
2016-11-15T02:48:44.627Z,4.63
2016-11-15T02:49:54.640Z,4.74
2016-11-15T02:51:04.339Z,4.76
2016-11-15T02:52:14.691Z,4.64
2016-11-15T02:53:24.691Z,4.71
2016-11-15T02:54:34.082Z,4.64
2016-11-15T02:55:44.147Z,4.74
2016-11-15T02:56:54.171Z,4.74
2016-11-15T02:58:04.182Z,4.75
2016-11-15T02:59:13.613Z,4.68
2016-11-15T03:00:23.931Z,4.71
2016-11-15T03:01:33.941Z,4.75
2016-11-15T03:02:43.937Z,4.74
2016-11-15T03:03:53.726Z,4.67
2016-11-15T03:05:03.740Z,4.61
2016-11-15T03:06:13.536Z,4.6
2016-11-15T03:07:23.535Z,4.67
2016-11-15T03:08:32.910Z,4.66
2016-11-15T03:09:42.929Z,4.61
2016-11-15T03:10:52.617Z,4.61
2016-11-15T03:12:02.639Z,4.78
2016-11-15T03:13:12.969Z,4.71
2016-11-15T03:14:22.668Z,4.76
2016-11-15T03:15:32.413Z,4.75
2016-11-15T03:16:42.415Z,4.64
2016-11-15T03:17:52.429Z,4.61
2016-11-15T03:19:02.439Z,4.71
2016-11-15T03:20:12.941Z,4.78
2016-11-15T03:21:22.940Z,4.83
2016-11-15T03:22:32.657Z,4.75
2016-11-15T03:23:42.429Z,4.74
2016-11-15T03:24:52.133Z,4.71
2016-11-15T03:26:02.140Z,4.74
2016-11-15T03:27:11.936Z,4.76
2016-11-15T03:28:21.942Z,4.78
2016-11-15T03:29:31.938Z,4.61
2016-11-15T03:30:41.977Z,4.82
2016-11-15T03:31:51.371Z,4.82
2016-11-15T03:33:01.636Z,4.75
2016-11-15T03:34:11.323Z,4.71
2016-11-15T03:35:20.704Z,4.78
2016-11-15T03:36:30.076Z,4.64
2016-11-15T03:37:40.072Z,4.76
2016-11-15T03:38:49.828Z,4.79
2016-11-15T03:39:59.528Z,4.76
2016-11-15T03:41:09.280Z,4.75
2016-11-15T03:42:19.579Z,4.75
2016-11-15T03:43:28.989Z,4.75
2016-11-15T03:44:39.297Z,4.78
2016-11-15T03:45:49.307Z,4.76
2016-11-15T03:46:59.038Z,4.71
2016-11-15T03:48:09.417Z,4.71
2016-11-15T03:49:19.489Z,4.78
2016-11-15T03:50:28.880Z,4.75
2016-11-15T03:51:38.988Z,4.76
2016-11-15T03:52:49.007Z,4.76
2016-11-15T03:53:59.028Z,4.7
2016-11-15T03:55:09.048Z,4.7
2016-11-15T03:56:18.749Z,4.75
2016-11-15T03:57:29.069Z,4.86
2016-11-15T03:58:39.072Z,4.75
2016-11-15T03:59:49.549Z,4.75
2016-11-15T04:00:59.557Z,4.7
2016-11-15T04:02:09.679Z,4.74
2016-11-15T04:03:20.010Z,4.75
2016-11-15T04:04:30.099Z,4.74
2016-11-15T04:05:39.501Z,4.74
2016-11-15T04:06:49.829Z,4.74
2016-11-15T04:07:59.981Z,4.87
2016-11-15T04:09:09.698Z,4.75
2016-11-15T04:10:19.890Z,4.92
2016-11-15T04:11:29.927Z,4.82
2016-11-15T04:12:39.937Z,4.86
2016-11-15T04:13:49.970Z,4.84
2016-11-15T04:15:00.010Z,4.86
2016-11-15T04:16:09.702Z,4.87
2016-11-15T04:17:19.719Z,4.76
2016-11-15T04:18:29.448Z,4.89
2016-11-15T04:19:38.839Z,4.89
2016-11-15T04:20:48.834Z,4.89
2016-11-15T04:21:58.888Z,4.84
2016-11-15T04:23:08.589Z,4.9
2016-11-15T04:24:18.528Z,4.86
2016-11-15T04:25:28.872Z,4.87
2016-11-15T04:26:38.941Z,4.94
2016-11-15T04:27:49.259Z,4.92
2016-11-15T04:28:59.330Z,4.89
2016-11-15T04:30:08.728Z,4.97
2016-11-15T04:31:18.589Z,4.94
2016-11-15T04:32:27.981Z,4.9
2016-11-15T04:33:37.671Z,4.92
2016-11-15T04:34:48.068Z,4.95
2016-11-15T04:35:58.105Z,4.84
2016-11-15T04:37:08.140Z,4.92
2016-11-15T04:38:17.828Z,4.9
2016-11-15T04:39:26.951Z,4.92
2016-11-15T04:40:37.079Z,5.01
2016-11-15T04:41:47.140Z,5
2016-11-15T04:42:57.201Z,5
2016-11-15T04:44:07.009Z,4.97
2016-11-15T04:45:16.719Z,4.97
2016-11-15T04:46:27.245Z,5.04
2016-11-15T04:47:37.055Z,5
2016-11-15T04:48:47.085Z,4.95
2016-11-15T04:49:57.101Z,4.97
2016-11-15T04:51:06.823Z,5.07
2016-11-15T04:52:16.838Z,5.02
2016-11-15T04:53:26.841Z,5.04
2016-11-15T04:54:35.936Z,5.05
2016-11-15T04:55:45.993Z,5.01
2016-11-15T04:56:56.044Z,5.02
2016-11-15T04:58:05.822Z,5.04
2016-11-15T04:59:15.917Z,5.04
2016-11-15T05:00:26.020Z,5.05
2016-11-15T05:01:36.038Z,5.07
2016-11-15T05:02:45.762Z,5.05
2016-11-15T05:03:55.484Z,5.01
2016-11-15T05:05:04.870Z,5.08
2016-11-15T05:06:15.213Z,5.13
2016-11-15T05:07:24.599Z,5.12
2016-11-15T05:08:34.933Z,5.16
2016-11-15T05:09:45.318Z,5.13
2016-11-15T05:10:55.638Z,5.15
2016-11-15T05:12:05.032Z,5.15
2016-11-15T05:13:15.068Z,5.15
2016-11-15T05:14:24.822Z,5.19
2016-11-15T05:15:35.135Z,5.15
2016-11-15T05:16:45.138Z,5.15
2016-11-15T05:17:55.137Z,5.18
2016-11-15T05:19:04.837Z,5.19
2016-11-15T05:20:14.588Z,5.18
2016-11-15T05:21:24.598Z,5.2
2016-11-15T05:22:34.595Z,5.16
2016-11-15T05:23:44.620Z,5.22
2016-11-15T05:24:54.934Z,5.28
2016-11-15T05:26:05.286Z,5.22
2016-11-15T05:27:15.348Z,5.25
2016-11-15T05:28:24.742Z,5.29
2016-11-15T05:29:34.787Z,5.25
2016-11-15T05:30:44.791Z,5.31
2016-11-15T05:31:54.947Z,5.31
2016-11-15T05:33:04.841Z,5.36
2016-11-15T05:34:14.244Z,5.36
2016-11-15T05:35:24.556Z,5.33
2016-11-15T05:36:34.327Z,5.37
2016-11-15T05:37:44.267Z,5.29
2016-11-15T05:38:54.054Z,5.41
2016-11-15T05:40:04.388Z,5.28
2016-11-15T05:41:14.119Z,5.38
2016-11-15T05:42:23.966Z,5.43
2016-11-15T05:43:34.590Z,5.34
2016-11-15T05:44:44.371Z,5.46
2016-11-15T05:45:54.399Z,5.44
2016-11-15T05:47:04.160Z,5.46
2016-11-15T05:48:14.138Z,5.46
2016-11-15T05:49:24.130Z,5.37
2016-11-15T05:50:34.199Z,5.46
2016-11-15T05:51:44.217Z,5.47
2016-11-15T05:52:53.974Z,5.46
2016-11-15T05:54:03.699Z,5.47
2016-11-15T05:55:14.117Z,5.51
2016-11-15T05:56:24.610Z,5.47
2016-11-15T05:57:34.955Z,5.51
2016-11-15T05:58:45.381Z,5.43
2016-11-15T05:59:55.763Z,5.38
2016-11-15T06:01:05.488Z,5.49
2016-11-15T06:02:15.574Z,5.47
2016-11-15T06:03:25.590Z,5.46
2016-11-15T06:04:35.902Z,5.52
2016-11-15T06:05:45.681Z,5.52
2016-11-15T06:06:55.724Z,5.56
2016-11-15T06:08:05.757Z,5.52
2016-11-15T06:09:15.481Z,5.52
2016-11-15T06:10:25.205Z,5.51
2016-11-15T06:11:34.296Z,5.51
2016-11-15T06:12:44.322Z,5.62
2016-11-15T06:13:54.443Z,5.59
2016-11-15T06:15:04.190Z,5.59
2016-11-15T06:16:14.411Z,5.61
2016-11-15T06:17:24.417Z,5.64
2016-11-15T06:18:34.909Z,5.61
2016-11-15T06:19:44.627Z,5.58
2016-11-15T06:20:54.970Z,5.61
2016-11-15T06:22:05.369Z,5.72
2016-11-15T06:23:15.389Z,5.64
2016-11-15T06:24:25.118Z,5.69
2016-11-15T06:25:35.518Z,5.77
2016-11-15T06:26:45.641Z,5.73
2016-11-15T06:27:55.669Z,5.69
2016-11-15T06:29:06.027Z,5.64
2016-11-15T06:30:16.043Z,5.8
2016-11-15T06:31:26.051Z,5.77
2016-11-15T06:32:36.153Z,5.77
2016-11-15T06:33:46.236Z,5.8
2016-11-15T06:34:55.641Z,5.79
2016-11-15T06:36:05.643Z,5.87
2016-11-15T06:37:16.056Z,5.84
2016-11-15T06:38:26.153Z,5.92
2016-11-15T06:39:36.508Z,5.8
2016-11-15T06:40:45.909Z,5.81
2016-11-15T06:41:56.032Z,5.94
2016-11-15T06:43:06.329Z,5.94
2016-11-15T06:44:15.718Z,5.94
2016-11-15T06:45:25.739Z,5.94
2016-11-15T06:46:35.171Z,5.97
2016-11-15T06:47:45.576Z,5.99
2016-11-15T06:48:55.294Z,6.02
2016-11-15T06:50:05.615Z,5.99
2016-11-15T06:51:15.608Z,6.05
2016-11-15T06:52:25.608Z,6.05
2016-11-15T06:53:35.707Z,6.01
2016-11-15T06:54:45.746Z,6.05
2016-11-15T06:55:55.148Z,5.97
2016-11-15T06:57:04.591Z,5.98
2016-11-15T06:58:14.922Z,6.07
2016-11-15T06:59:24.933Z,6.12
2016-11-15T07:00:35.097Z,6.02
2016-11-15T07:01:45.313Z,6.1
2016-11-15T07:02:55.626Z,6.17
2016-11-15T07:04:05.986Z,6.07
2016-11-15T07:05:15.817Z,6.1
2016-11-15T07:06:25.885Z,6.1
2016-11-15T07:07:35.598Z,6.1
2016-11-15T07:08:45.686Z,6.1
2016-11-15T07:09:56.004Z,6.16
2016-11-15T07:11:06.474Z,6.16
2016-11-15T07:12:16.173Z,6.12
2016-11-15T07:13:25.949Z,6.15
2016-11-15T07:14:36.314Z,6.13
2016-11-15T07:15:46.091Z,6.12
2016-11-15T07:16:56.093Z,6.1
2016-11-15T07:18:06.114Z,6.19
2016-11-15T07:19:16.132Z,6.17
2016-11-15T07:20:25.541Z,6.17
2016-11-15T07:21:35.567Z,6.16
2016-11-15T07:22:45.273Z,6.15
2016-11-15T07:23:55.115Z,6.2
2016-11-15T07:25:04.695Z,6.2
2016-11-15T07:26:15.059Z,6.16
2016-11-15T07:27:24.770Z,6.32
2016-11-15T07:28:35.067Z,6.28
2016-11-15T07:29:45.123Z,6.32
2016-11-15T07:30:55.771Z,6.32
2016-11-15T07:32:06.114Z,6.29
2016-11-15T07:33:16.155Z,6.29
2016-11-15T07:34:26.186Z,6.34
2016-11-15T07:35:36.559Z,6.38
2016-11-15T07:36:46.294Z,6.39
2016-11-15T07:37:56.124Z,6.44
2016-11-15T07:39:05.605Z,6.39
2016-11-15T07:40:15.633Z,6.43
2016-11-15T07:41:25.316Z,6.44
2016-11-15T07:42:35.120Z,6.47
2016-11-15T07:43:45.351Z,6.5
2016-11-15T07:44:54.731Z,6.5
2016-11-15T07:46:04.747Z,6.56
2016-11-15T07:47:14.819Z,6.46
2016-11-15T07:48:25.149Z,6.52
2016-11-15T07:49:35.386Z,6.54
2016-11-15T07:50:45.483Z,6.57
2016-11-15T07:51:55.658Z,6.57
2016-11-15T07:53:05.716Z,6.59
2016-11-15T07:54:15.789Z,6.67
2016-11-15T07:55:24.869Z,6.64
2016-11-15T07:56:35.270Z,6.62
2016-11-15T07:57:45.172Z,6.6
2016-11-15T07:58:55.209Z,6.59
2016-11-15T08:00:04.591Z,6.65
2016-11-15T08:01:15.334Z,6.65
2016-11-15T08:02:25.453Z,6.65
2016-11-15T08:03:35.568Z,6.72
2016-11-15T08:04:46.050Z,6.7
2016-11-15T08:05:56.122Z,6.78
2016-11-15T08:07:05.567Z,6.8
2016-11-15T08:08:15.776Z,6.77
2016-11-15T08:09:25.778Z,6.71
2016-11-15T08:10:35.591Z,6.82
2016-11-15T08:11:45.133Z,6.82
2016-11-15T08:12:55.288Z,6.85
2016-11-15T08:14:05.599Z,6.86
2016-11-15T08:15:15.773Z,6.87
2016-11-15T08:16:25.939Z,6.95
2016-11-15T08:17:35.228Z,6.92
2016-11-15T08:18:45.602Z,6.95
2016-11-15T08:19:55.804Z,7.03
2016-11-15T08:21:04.903Z,7.08
2016-11-15T08:22:14.733Z,7.04
2016-11-15T08:23:25.066Z,7.04
2016-11-15T08:24:35.228Z,7.08
2016-11-15T08:25:45.462Z,7.03
2016-11-15T08:26:55.863Z,7.19
2016-11-15T08:28:06.182Z,7.15
2016-11-15T08:29:16.191Z,7.14
2016-11-15T08:30:25.363Z,7.21
2016-11-15T08:31:36.222Z,7.21
2016-11-15T08:32:46.241Z,7.13
2016-11-15T08:33:56.621Z,7.19
2016-11-15T08:35:06.318Z,7.13
2016-11-15T08:36:16.324Z,7.14
2016-11-15T08:37:26.725Z,7.19
2016-11-15T08:38:36.728Z,7.21
2016-11-15T08:39:46.751Z,7.21
2016-11-15T08:40:56.764Z,7.18
2016-11-15T08:42:07.221Z,7.18
2016-11-15T08:43:17.228Z,7.26
2016-11-15T08:44:27.642Z,7.21
2016-11-15T08:45:37.228Z,7.25
2016-11-15T08:46:47.234Z,7.28
2016-11-15T08:47:56.945Z,7.26
2016-11-15T08:49:07.063Z,7.28
2016-11-15T08:50:17.091Z,7.23
2016-11-15T08:51:27.452Z,7.32
2016-11-15T08:52:37.464Z,7.36
2016-11-15T08:55:04.012Z,7.33
2016-11-15T08:56:14.036Z,7.4
2016-11-15T08:57:23.433Z,7.31
2016-11-15T08:58:33.437Z,7.41
2016-11-15T08:59:43.434Z,7.33
2016-11-15T09:00:53.443Z,7.32
2016-11-15T09:02:03.181Z,7.37
2016-11-15T09:03:13.094Z,7.44
2016-11-15T09:04:23.117Z,7.53
2016-11-15T09:05:33.745Z,7.48
2016-11-15T09:06:44.076Z,7.56
2016-11-15T09:07:54.194Z,7.58
2016-11-15T09:09:04.004Z,7.56
2016-11-15T09:10:13.737Z,7.51
2016-11-15T09:11:23.583Z,7.56
2016-11-15T09:12:33.966Z,7.51
2016-11-15T09:13:44.312Z,7.55
2016-11-15T09:14:54.382Z,7.53
2016-11-15T09:16:04.283Z,7.62
2016-11-15T09:17:14.739Z,7.62
2016-11-15T09:18:24.745Z,7.64
2016-11-15T09:19:35.086Z,7.77
2016-11-15T09:20:44.938Z,7.83
2016-11-15T09:21:55.292Z,7.85
2016-11-15T09:23:05.574Z,7.84
2016-11-15T09:24:15.939Z,8.01
2016-11-15T09:25:26.700Z,7.93
2016-11-15T09:26:37.086Z,7.99
2016-11-15T09:27:47.231Z,8.03
2016-11-15T09:28:57.290Z,8.06
2016-11-15T09:30:07.307Z,8.11
2016-11-15T09:31:17.464Z,8.06
2016-11-15T09:32:27.507Z,8.18
2016-11-15T09:33:37.528Z,8.13
2016-11-15T09:34:47.586Z,8.17
2016-11-15T09:35:57.609Z,8.2
2016-11-15T09:37:08.105Z,8.17
2016-11-15T09:38:18.479Z,8.23
2016-11-15T09:39:28.806Z,8.32
2016-11-15T09:40:38.956Z,8.32
2016-11-15T09:41:49.024Z,8.34
2016-11-15T09:42:59.178Z,8.39
2016-11-15T09:44:09.568Z,8.39
2016-11-15T09:45:19.587Z,8.34
2016-11-15T09:46:29.607Z,8.42
2016-11-15T09:47:39.951Z,8.44
2016-11-15T09:48:50.082Z,8.42
2016-11-15T09:50:00.207Z,8.41
2016-11-15T09:51:10.548Z,8.45
2016-11-15T09:52:20.026Z,8.46
2016-11-15T09:53:30.070Z,8.56
2016-11-15T09:54:40.156Z,8.57
2016-11-15T09:55:50.599Z,8.61
2016-11-15T09:57:00.926Z,8.64
2016-11-15T09:58:10.930Z,8.66
2016-11-15T09:59:20.667Z,8.71
2016-11-15T10:00:30.366Z,8.72
2016-11-15T10:01:40.700Z,8.72
2016-11-15T10:02:50.716Z,8.82
2016-11-15T10:04:00.751Z,8.81
2016-11-15T10:05:10.487Z,8.82
2016-11-15T10:06:20.823Z,8.81
2016-11-15T10:07:31.137Z,8.87
2016-11-15T10:08:41.185Z,8.86
2016-11-15T10:09:50.953Z,8.82
2016-11-15T10:11:00.720Z,8.79
2016-11-15T10:12:10.419Z,8.75
2016-11-15T10:13:20.770Z,8.77
2016-11-15T10:14:30.805Z,8.82
2016-11-15T10:15:40.570Z,8.81
2016-11-15T10:16:50.605Z,8.79
2016-11-15T10:18:00.617Z,8.69
2016-11-15T10:19:10.673Z,8.79
2016-11-15T10:20:20.729Z,8.71
2016-11-15T10:21:30.759Z,8.74
2016-11-15T10:22:40.811Z,8.82
2016-11-15T10:23:50.548Z,8.69
2016-11-15T10:25:00.938Z,8.79
2016-11-15T10:26:11.024Z,8.82
2016-11-15T10:27:20.729Z,8.82
2016-11-15T10:28:30.490Z,8.79
2016-11-15T10:29:40.872Z,8.82
2016-11-15T10:30:50.886Z,8.81
2016-11-15T10:32:01.290Z,8.78
2016-11-15T10:33:10.992Z,8.78
2016-11-15T10:34:20.710Z,8.78
2016-11-15T10:35:31.031Z,8.89
2016-11-15T10:36:41.160Z,8.87
2016-11-15T10:37:50.945Z,8.9
2016-11-15T10:39:01.254Z,8.92
2016-11-15T10:40:11.747Z,8.93
2016-11-15T10:41:21.786Z,8.84
2016-11-15T10:42:31.693Z,9
2016-11-15T10:43:42.087Z,8.87
2016-11-15T10:44:52.130Z,8.96
2016-11-15T10:46:01.879Z,8.86
2016-11-15T10:47:12.231Z,9.02
2016-11-15T10:48:21.339Z,8.96
2016-11-15T10:49:31.696Z,9.02
2016-11-15T10:50:41.728Z,8.99
2016-11-15T10:51:51.725Z,9
2016-11-15T10:53:01.439Z,8.99
2016-11-15T10:54:11.757Z,9
2016-11-15T10:55:22.189Z,8.95
2016-11-15T10:56:32.534Z,9.05
2016-11-15T10:57:42.276Z,9.12
2016-11-15T10:58:52.618Z,9.03
2016-11-15T11:00:01.787Z,9.11
2016-11-15T11:01:12.128Z,9.12
2016-11-15T11:02:21.878Z,9.18
2016-11-15T11:03:32.309Z,9.16
2016-11-15T11:04:42.640Z,9.18
2016-11-15T11:05:52.756Z,9.26
2016-11-15T11:07:02.777Z,9.22
2016-11-15T11:08:12.827Z,9.22
2016-11-15T11:09:23.164Z,9.21
2016-11-15T11:10:33.178Z,9.27
2016-11-15T11:11:43.286Z,9.33
2016-11-15T11:12:53.618Z,9.27
2016-11-15T11:14:03.621Z,9.39
2016-11-15T11:15:13.630Z,9.34
2016-11-15T11:16:23.662Z,9.31
2016-11-15T11:17:34.487Z,9.33
2016-11-15T11:18:44.520Z,9.37
2016-11-15T11:19:54.547Z,9.44
2016-11-15T11:21:04.618Z,9.4
2016-11-15T11:22:14.672Z,9.4
2016-11-15T11:23:24.419Z,9.55
2016-11-15T11:24:34.477Z,9.59
2016-11-15T11:25:44.879Z,9.58
2016-11-15T11:26:55.269Z,9.51
2016-11-15T11:28:05.368Z,9.66
2016-11-15T11:29:15.368Z,9.81
2016-11-15T11:30:25.392Z,9.76
2016-11-15T11:31:35.752Z,9.76
2016-11-15T11:32:46.068Z,9.69
2016-11-15T11:33:56.083Z,9.67
2016-11-15T11:35:06.162Z,9.72
2016-11-15T11:36:16.544Z,9.72
2016-11-15T11:37:26.240Z,9.66
2016-11-15T11:38:35.949Z,9.72
2016-11-15T11:39:45.978Z,9.69
2016-11-15T11:40:56.235Z,9.72
2016-11-15T11:42:06.085Z,9.73
2016-11-15T11:43:15.930Z,9.74
2016-11-15T11:44:26.034Z,9.73
2016-11-15T11:45:35.757Z,9.82
2016-11-15T11:46:46.088Z,9.73
2016-11-15T11:47:56.416Z,9.82
2016-11-15T11:49:06.467Z,9.85
2016-11-15T11:50:16.840Z,9.92
2016-11-15T11:51:26.629Z,9.95
2016-11-15T11:52:36.646Z,9.99
2016-11-15T11:53:46.976Z,10.05
2016-11-15T11:54:56.390Z,9.92
2016-11-15T11:56:05.789Z,10
2016-11-15T11:57:15.874Z,10.05
2016-11-15T11:58:26.196Z,10.05
2016-11-15T11:59:36.215Z,10.02
2016-11-15T12:00:46.223Z,10.03
2016-11-15T12:01:56.660Z,10.06
2016-11-15T12:03:07.140Z,10.07
2016-11-15T12:04:18.240Z,10.09
2016-11-15T12:05:28.367Z,10.05
2016-11-15T12:06:38.694Z,10.09
2016-11-15T12:07:49.064Z,10.2
2016-11-15T12:08:59.468Z,10.18
2016-11-15T12:10:10.116Z,10.17
2016-11-15T12:11:20.436Z,10.18
2016-11-15T12:12:30.210Z,10.2
2016-11-15T12:13:40.570Z,10.21
2016-11-15T12:14:50.609Z,10.17
2016-11-15T12:16:00.632Z,10.2
2016-11-15T12:17:10.791Z,10.17
2016-11-15T12:18:21.188Z,10.18
2016-11-15T12:19:31.546Z,10.2
2016-11-15T12:20:41.590Z,10.27
2016-11-15T12:21:50.985Z,10.36
2016-11-15T12:23:01.070Z,10.33
2016-11-15T12:24:11.158Z,10.36
2016-11-15T12:25:21.426Z,10.33
2016-11-15T12:26:31.857Z,10.3
2016-11-15T12:27:41.875Z,10.28
2016-11-15T12:28:52.278Z,10.3
2016-11-15T12:30:02.755Z,10.28
2016-11-15T12:31:13.058Z,10.33
2016-11-15T12:32:23.168Z,10.31
2016-11-15T12:33:33.521Z,10.25
2016-11-15T12:34:43.931Z,10.31
2016-11-15T12:35:53.657Z,10.34
2016-11-15T12:37:03.715Z,10.48
2016-11-15T12:38:14.110Z,10.36
2016-11-15T12:39:24.481Z,10.39
2016-11-15T12:40:33.941Z,10.45
2016-11-15T12:41:44.291Z,10.53
2016-11-15T12:42:54.836Z,10.59
2016-11-15T12:44:05.180Z,10.61
2016-11-15T12:45:15.636Z,10.67
2016-11-15T12:46:25.740Z,10.75
2016-11-15T12:47:36.166Z,10.72
2016-11-15T12:48:46.496Z,10.69
2016-11-15T12:49:56.559Z,10.69
2016-11-15T12:51:06.926Z,10.71
2016-11-15T12:52:16.635Z,10.75
2016-11-15T12:53:26.980Z,10.75
2016-11-15T12:54:37.338Z,10.75
2016-11-15T12:55:47.766Z,10.69
2016-11-15T12:56:57.499Z,10.8
2016-11-15T12:58:07.221Z,10.86
2016-11-15T12:59:17.577Z,10.77
2016-11-15T13:00:27.580Z,10.79
2016-11-15T13:01:38.027Z,10.82
2016-11-15T13:02:48.358Z,10.84
2016-11-15T13:03:58.477Z,10.75
2016-11-15T13:05:08.501Z,10.75
2016-11-15T13:06:18.582Z,10.77
2016-11-15T13:07:28.605Z,10.79
2016-11-15T13:08:38.347Z,10.72
2016-11-15T13:09:48.058Z,10.71
2016-11-15T13:10:58.140Z,10.75
2016-11-15T13:12:08.510Z,10.65
2016-11-15T13:13:18.933Z,10.64
2016-11-15T13:14:29.272Z,10.58
2016-11-15T13:15:39.750Z,10.67
2016-11-15T13:16:50.227Z,10.62
2016-11-15T13:18:00.648Z,10.69
2016-11-15T13:19:10.403Z,10.62
2016-11-15T13:20:20.434Z,10.65
2016-11-15T13:21:30.466Z,10.64
2016-11-15T13:22:40.176Z,10.62
2016-11-15T13:23:50.553Z,10.59
2016-11-15T13:25:00.672Z,10.61
2016-11-15T13:26:10.165Z,10.62
2016-11-15T13:27:20.596Z,10.67
2016-11-15T13:28:31.020Z,10.62
2016-11-15T13:29:41.333Z,10.65
2016-11-15T13:30:51.669Z,10.67
2016-11-15T13:32:02.012Z,10.64
2016-11-15T13:33:11.885Z,10.57
2016-11-15T13:34:22.219Z,10.72
2016-11-15T13:35:32.600Z,10.64
2016-11-15T13:36:43.089Z,10.65
2016-11-15T13:37:53.296Z,10.65
2016-11-15T13:39:02.712Z,10.76
2016-11-15T13:40:12.760Z,10.69
2016-11-15T13:41:23.104Z,10.76
2016-11-15T13:42:33.584Z,10.68
2016-11-15T13:43:43.649Z,10.67
2016-11-15T13:44:54.091Z,10.65
2016-11-15T13:46:04.511Z,10.76
2016-11-15T13:47:14.589Z,10.69
2016-11-15T13:48:24.648Z,10.72
2016-11-15T13:49:34.658Z,10.67
2016-11-15T13:50:44.704Z,10.65
2016-11-15T13:51:55.284Z,10.65
2016-11-15T13:53:05.393Z,10.68
2016-11-15T13:54:15.895Z,10.75
2016-11-15T13:55:25.975Z,10.76
2016-11-15T13:56:35.706Z,10.77
2016-11-15T13:57:46.055Z,10.77
2016-11-15T13:58:56.399Z,10.68
2016-11-15T14:00:06.452Z,10.77
2016-11-15T14:01:16.477Z,10.82
2016-11-15T14:02:26.872Z,10.75
2016-11-15T14:03:37.196Z,10.79
2016-11-15T14:04:47.739Z,10.75
2016-11-15T14:05:58.039Z,10.8
2016-11-15T14:07:08.399Z,10.68
2016-11-15T14:08:18.444Z,10.82
2016-11-15T14:09:28.503Z,10.77
2016-11-15T14:10:38.544Z,10.83
2016-11-15T14:11:48.339Z,10.75
2016-11-15T14:12:58.393Z,10.77
2016-11-15T14:14:08.432Z,10.76
2016-11-15T14:15:18.451Z,10.82
2016-11-15T14:16:28.291Z,10.83
2016-11-15T14:17:38.357Z,10.82
2016-11-15T14:18:48.401Z,10.89
2016-11-15T14:19:58.830Z,10.83
2016-11-15T14:21:09.181Z,10.83
2016-11-15T14:22:19.266Z,10.94
2016-11-15T14:23:29.310Z,10.82
2016-11-15T14:24:39.673Z,10.79
2016-11-15T14:25:49.446Z,10.83
2016-11-15T14:26:59.810Z,10.8
2016-11-15T14:28:10.163Z,10.9
2016-11-15T14:29:20.548Z,10.92
2016-11-15T14:30:30.872Z,10.87
2016-11-15T14:31:40.949Z,10.87
2016-11-15T14:32:51.000Z,10.84
2016-11-15T14:34:00.920Z,10.84
2016-11-15T14:35:11.263Z,10.87
2016-11-15T14:36:21.590Z,10.9
2016-11-15T14:37:31.984Z,10.86
2016-11-15T14:38:42.034Z,10.87
2016-11-15T14:39:52.523Z,10.98
2016-11-15T14:41:02.579Z,10.87
2016-11-15T14:42:13.110Z,10.84
2016-11-15T14:43:22.535Z,10.92
2016-11-15T14:44:32.590Z,10.89
2016-11-15T14:45:42.642Z,10.87
2016-11-15T14:46:53.165Z,10.86
2016-11-15T14:48:03.530Z,10.92
2016-11-15T14:49:13.880Z,10.89
2016-11-15T14:50:23.908Z,10.9
2016-11-15T14:51:33.972Z,10.92
2016-11-15T14:52:44.093Z,10.84
2016-11-15T14:53:54.452Z,10.9
2016-11-15T14:55:03.859Z,10.97
2016-11-15T14:56:13.914Z,10.95
2016-11-15T14:57:23.973Z,10.92
2016-11-15T14:58:33.813Z,10.95
2016-11-15T14:59:43.864Z,11.04
2016-11-15T15:00:53.942Z,10.95
2016-11-15T15:02:04.290Z,10.95
2016-11-15T15:03:14.671Z,10.98
2016-11-15T15:04:25.025Z,10.95
2016-11-15T15:05:35.551Z,11
2016-11-15T15:06:45.887Z,10.95
2016-11-15T15:07:56.237Z,10.87
2016-11-15T15:09:06.312Z,11.02
2016-11-15T15:10:16.650Z,11
2016-11-15T15:11:26.725Z,10.92
2016-11-15T15:12:37.064Z,11.02
2016-11-15T15:13:47.527Z,11
2016-11-15T15:14:58.112Z,11
2016-11-15T15:16:08.181Z,10.95
2016-11-15T15:17:18.108Z,11
2016-11-15T15:18:27.665Z,11.01
2016-11-15T15:19:38.024Z,11.02
2016-11-15T15:20:48.801Z,10.98
2016-11-15T15:21:58.852Z,11.05
2016-11-15T15:23:08.866Z,11.07
2016-11-15T15:24:18.964Z,11.05
2016-11-15T15:25:29.030Z,11.02
2016-11-15T15:26:39.540Z,11.08
2016-11-15T15:27:49.883Z,11.02
2016-11-15T15:28:59.924Z,11.07
2016-11-15T15:30:10.015Z,11.02